Time;durP1;ratioP1;P1;durP2;ratioP2;P2;SDS_P1;SDS_P2;PMS_P1;PMS_P2;Temp;Humidity;BMP_temperature;BMP_pressure;BME280_temperature;BME280_humidity;BME280_pressure;Samples;Min_cycle;Max_cycle;Signal;HPM_P1;HPM_P2
2022/07/16 00:01:26;;;;;;;0.00;0.00;;;;;;;;;;5043056;28;20032;-64
2022/07/16 00:04:01;;;;;;;0.08;0.08;;;;;;;;;;5044621;28;20021;-64
2022/07/16 00:06:28;;;;;;;0.63;0.52;;;;;;;;;;5045944;28;20041;-64
2022/07/16 00:08:53;;;;;;;0.03;0.03;;;;;;;;;;5043307;28;20025;-67
2022/07/16 00:11:18;;;;;;;0.15;0.15;;;;;;;;;;5045628;28;20024;-65
2022/07/16 00:13:44;;;;;;;4.53;1.30;;;;;;;;;;5046818;28;20485;-61
2022/07/16 00:16:09;;;;;;;0.00;0.00;;;;;;;;;;5048834;28;20035;-60
2022/07/16 00:21:19;;;;;;;0.10;0.10;;;;;;;;;;5045515;28;20434;-62
2022/07/16 00:23:44;;;;;;;0.05;0.05;;;;;;;;;;5046313;28;20135;-65
2022/07/16 00:26:09;;;;;;;0.00;0.00;;;;;;;;;;5046572;28;20413;-67
2022/07/16 00:28:35;;;;;;;0.00;0.00;;;;;;;;;;5045627;28;20021;-66
2022/07/16 00:31:00;;;;;;;1.48;1.38;;;;;;;;;;5045693;28;20362;-64
2022/07/16 00:33:25;;;;;;;5.82;0.70;;;;;;;;;;5046499;28;20441;-64
2022/07/16 00:35:50;;;;;;;0.73;0.73;;;;;;;;;;5045739;28;20013;-64
2022/07/16 00:38:16;;;;;;;0.00;0.00;;;;;;;;;;5045822;28;20670;-63
2022/07/16 00:40:41;;;;;;;0.00;0.00;;;;;;;;;;5045749;28;20028;-64
2022/07/16 00:43:10;;;;;;;1.92;1.15;;;;;;;;;;5046679;28;20100;-65
2022/07/16 00:45:36;;;;;;;0.65;0.65;;;;;;;;;;5048972;28;20569;-62
2022/07/16 00:48:01;;;;;;;0.00;0.00;;;;;;;;;;5044350;28;20033;-62
2022/07/16 00:50:26;;;;;;;0.10;0.10;;;;;;;;;;5045058;28;20434;-62
2022/07/16 00:52:52;;;;;;;0.65;0.40;;;;;;;;;;5044532;28;20029;-63
2022/07/16 00:55:17;;;;;;;0.00;0.00;;;;;;;;;;5044466;28;20699;-65
2022/07/16 00:57:42;;;;;;;0.00;0.00;;;;;;;;;;5043997;28;20067;-58
2022/07/16 01:00:08;;;;;;;0.00;0.00;;;;;;;;;;5044269;28;20025;-61
2022/07/16 01:02:33;;;;;;;0.20;0.20;;;;;;;;;;5044023;28;20025;-61
2022/07/16 01:04:58;;;;;;;0.00;0.00;;;;;;;;;;5043474;28;20520;-64
2022/07/16 01:07:24;;;;;;;0.00;0.00;;;;;;;;;;5044939;28;20082;-62
2022/07/16 01:09:50;;;;;;;0.10;0.10;;;;;;;;;;5043723;28;20040;-67
2022/07/16 01:12:15;;;;;;;0.68;0.68;;;;;;;;;;5046446;28;20059;-63
2022/07/16 01:14:41;;;;;;;0.00;0.00;;;;;;;;;;5044682;28;20532;-62
2022/07/16 01:17:07;;;;;;;1.90;0.73;;;;;;;;;;5044656;28;20078;-62
2022/07/16 01:19:33;;;;;;;0.00;0.00;;;;;;;;;;5044732;28;20025;-62
2022/07/16 01:21:58;;;;;;;0.22;0.22;;;;;;;;;;5044694;28;20055;-58
2022/07/16 01:24:23;;;;;;;0.00;0.00;;;;;;;;;;5045041;28;20060;-59
2022/07/16 01:26:48;;;;;;;0.00;0.00;;;;;;;;;;5043450;28;20762;-60
2022/07/16 01:29:14;;;;;;;0.15;0.15;;;;;;;;;;5044760;28;20066;-61
2022/07/16 01:31:39;;;;;;;0.00;0.00;;;;;;;;;;5044702;28;20017;-60
2022/07/16 01:36:59;;;;;;;0.38;0.38;;;;;;;;;;5044607;28;20082;-63
2022/07/16 01:39:24;;;;;;;2.65;0.40;;;;;;;;;;5043444;28;20032;-64
2022/07/16 01:41:51;;;;;;;0.00;0.00;;;;;;;;;;5044622;28;20037;-63
2022/07/16 01:44:16;;;;;;;17.65;1.17;;;;;;;;;;5045330;28;20021;-63
2022/07/16 01:46:41;;;;;;;0.00;0.00;;;;;;;;;;5043953;28;20417;-63
2022/07/16 01:49:07;;;;;;;0.00;0.00;;;;;;;;;;5043799;28;20073;-64
2022/07/16 01:51:32;;;;;;;0.08;0.08;;;;;;;;;;5044364;28;20462;-64
2022/07/16 01:53:57;;;;;;;0.00;0.00;;;;;;;;;;5044078;28;20426;-64
2022/07/16 01:56:22;;;;;;;0.05;0.00;;;;;;;;;;5044143;28;20271;-63
2022/07/16 01:58:47;;;;;;;0.08;0.08;;;;;;;;;;5044005;28;20037;-63
2022/07/16 02:01:13;;;;;;;0.32;0.32;;;;;;;;;;5044019;28;20021;-63
2022/07/16 02:03:38;;;;;;;0.65;0.65;;;;;;;;;;5044440;28;20033;-63
2022/07/16 02:06:03;;;;;;;0.00;0.00;;;;;;;;;;5041395;28;20053;-63
2022/07/16 02:08:28;;;;;;;0.00;0.00;;;;;;;;;;5044114;28;20772;-63
2022/07/16 02:10:54;;;;;;;0.08;0.08;;;;;;;;;;5045468;28;20020;-64
2022/07/16 02:13:19;;;;;;;1.42;1.38;;;;;;;;;;5044271;28;20028;-63
2022/07/16 02:15:44;;;;;;;0.10;0.10;;;;;;;;;;5043538;28;20651;-64
2022/07/16 02:18:09;;;;;;;0.13;0.13;;;;;;;;;;5043851;28;20021;-63
2022/07/16 02:20:34;;;;;;;0.10;0.10;;;;;;;;;;5044317;28;20025;-63
2022/07/16 02:23:00;;;;;;;0.47;0.28;;;;;;;;;;5043774;28;20017;-64
2022/07/16 02:25:25;;;;;;;0.00;0.00;;;;;;;;;;5044038;28;20024;-64
2022/07/16 02:28:06;;;;;;;0.00;0.00;;;;;;;;;;5043055;28;20027;-59
2022/07/16 02:30:31;;;;;;;0.00;0.00;;;;;;;;;;5043347;28;20541;-59
2022/07/16 02:32:56;;;;;;;8.68;1.10;;;;;;;;;;5043702;28;20029;-60
2022/07/16 02:35:22;;;;;;;0.00;0.00;;;;;;;;;;5044083;28;20458;-60
2022/07/16 02:37:47;;;;;;;0.55;0.55;;;;;;;;;;5044165;28;20086;-61
2022/07/16 02:40:13;;;;;;;0.57;0.25;;;;;;;;;;5045038;28;20028;-61
2022/07/16 02:42:39;;;;;;;3.95;0.52;;;;;;;;;;5044262;28;20021;-60
2022/07/16 02:45:04;;;;;;;0.00;0.00;;;;;;;;;;5043714;28;20021;-59
2022/07/16 02:47:29;;;;;;;0.32;0.32;;;;;;;;;;5044027;28;20029;-60
2022/07/16 02:49:55;;;;;;;0.00;0.00;;;;;;;;;;5043288;28;20109;-59
2022/07/16 02:52:20;;;;;;;0.30;0.20;;;;;;;;;;5044333;28;20028;-59
2022/07/16 02:54:45;;;;;;;0.00;0.00;;;;;;;;;;5043628;28;20027;-60
2022/07/16 02:57:10;;;;;;;0.00;0.00;;;;;;;;;;5043319;28;20025;-60
2022/07/16 02:59:36;;;;;;;0.13;0.13;;;;;;;;;;5044200;28;20470;-60
2022/07/16 03:02:01;;;;;;;0.28;0.28;;;;;;;;;;5043456;28;20279;-60
2022/07/16 03:04:26;;;;;;;1.02;1.02;;;;;;;;;;5043450;28;20044;-61
2022/07/16 03:06:51;;;;;;;0.10;0.10;;;;;;;;;;5044122;28;20036;-62
2022/07/16 03:09:16;;;;;;;1.25;1.25;;;;;;;;;;5044520;28;20037;-60
2022/07/16 03:11:42;;;;;;;0.05;0.05;;;;;;;;;;5043252;28;20024;-62
2022/07/16 03:14:07;;;;;;;0.10;0.10;;;;;;;;;;5043526;28;20035;-62
2022/07/16 03:16:32;;;;;;;0.00;0.00;;;;;;;;;;5043797;28;20252;-63
2022/07/16 03:18:57;;;;;;;0.00;0.00;;;;;;;;;;5042889;28;20029;-63
2022/07/16 03:21:22;;;;;;;0.00;0.00;;;;;;;;;;5043802;28;20267;-63
2022/07/16 03:23:48;;;;;;;0.20;0.20;;;;;;;;;;5043414;28;20337;-64
2022/07/16 03:26:13;;;;;;;0.00;0.00;;;;;;;;;;5043069;28;20075;-63
2022/07/16 03:28:38;;;;;;;0.00;0.00;;;;;;;;;;5043642;28;20024;-63
2022/07/16 03:31:04;;;;;;;0.00;0.00;;;;;;;;;;5043134;28;20021;-63
2022/07/16 03:33:29;;;;;;;0.45;0.45;;;;;;;;;;5043242;28;20021;-66
2022/07/16 03:35:54;;;;;;;0.00;0.00;;;;;;;;;;5044444;28;20021;-60
2022/07/16 03:41:03;;;;;;;2.83;1.88;;;;;;;;;;5043712;28;20546;-60
2022/07/16 03:43:28;;;;;;;0.00;0.00;;;;;;;;;;5047219;28;20017;-60
2022/07/16 03:45:53;;;;;;;0.00;0.00;;;;;;;;;;5046908;28;20028;-59
2022/07/16 03:48:18;;;;;;;0.63;0.57;;;;;;;;;;5046858;28;20032;-62
2022/07/16 03:50:44;;;;;;;0.38;0.38;;;;;;;;;;5046477;28;20056;-62
2022/07/16 03:53:09;;;;;;;0.00;0.00;;;;;;;;;;5046181;28;20025;-62
2022/07/16 03:55:34;;;;;;;0.65;0.65;;;;;;;;;;5046591;28;20271;-62
2022/07/16 03:57:59;;;;;;;0.00;0.00;;;;;;;;;;5045871;28;20437;-63
2022/07/16 04:00:24;;;;;;;0.00;0.00;;;;;;;;;;5044747;28;20092;-64
2022/07/16 04:02:50;;;;;;;0.00;0.00;;;;;;;;;;5046053;28;20264;-63
2022/07/16 04:05:15;;;;;;;0.70;0.65;;;;;;;;;;5045439;28;20040;-63
2022/07/16 04:07:40;;;;;;;0.00;0.00;;;;;;;;;;5046230;28;20044;-63
2022/07/16 04:10:05;;;;;;;0.00;0.00;;;;;;;;;;5045667;28;20024;-63
2022/07/16 04:12:31;;;;;;;0.20;0.20;;;;;;;;;;5045906;28;20044;-62
2022/07/16 04:14:56;;;;;;;0.00;0.00;;;;;;;;;;5030004;28;20024;-64
2022/07/16 04:17:21;;;;;;;0.00;0.00;;;;;;;;;;5046715;28;20356;-64
2022/07/16 04:19:46;;;;;;;0.20;0.20;;;;;;;;;;5045434;28;20987;-64
2022/07/16 04:22:12;;;;;;;0.00;0.00;;;;;;;;;;5046109;28;20441;-64
2022/07/16 04:24:38;;;;;;;0.00;0.00;;;;;;;;;;5046345;28;20037;-64
2022/07/16 04:27:03;;;;;;;1.95;1.83;;;;;;;;;;5045479;28;20072;-64
2022/07/16 04:29:28;;;;;;;0.00;0.00;;;;;;;;;;5045859;28;20809;-64
2022/07/16 04:31:54;;;;;;;0.00;0.00;;;;;;;;;;5027683;28;20046;-63
2022/07/16 04:34:19;;;;;;;0.00;0.00;;;;;;;;;;5044576;28;20021;-63
2022/07/16 04:36:44;;;;;;;0.10;0.10;;;;;;;;;;5046206;28;20029;-63
2022/07/16 04:39:10;;;;;;;0.00;0.00;;;;;;;;;;5045085;28;20029;-61
2022/07/16 04:41:35;;;;;;;0.00;0.00;;;;;;;;;;5045445;28;20032;-60
2022/07/16 04:44:00;;;;;;;0.00;0.00;;;;;;;;;;5045466;28;20055;-60
2022/07/16 04:46:25;;;;;;;0.00;0.00;;;;;;;;;;5046134;28;20025;-61
2022/07/16 04:48:51;;;;;;;0.15;0.15;;;;;;;;;;5044632;28;20110;-60
2022/07/16 04:51:16;;;;;;;0.00;0.00;;;;;;;;;;5045110;28;20016;-62
2022/07/16 04:53:41;;;;;;;0.13;0.13;;;;;;;;;;5045280;28;20021;-64
2022/07/16 04:56:06;;;;;;;0.00;0.00;;;;;;;;;;5045116;28;20029;-63
2022/07/16 04:58:32;;;;;;;0.00;0.00;;;;;;;;;;5045678;28;20031;-62
2022/07/16 05:00:57;;;;;;;0.10;0.10;;;;;;;;;;5045178;28;20458;-61
2022/07/16 05:03:23;;;;;;;0.80;0.80;;;;;;;;;;5045182;28;20021;-61
2022/07/16 05:05:49;;;;;;;14.30;0.45;;;;;;;;;;5044652;28;20037;-61
2022/07/16 05:08:14;;;;;;;0.00;0.00;;;;;;;;;;5045221;28;20033;-63
2022/07/16 05:10:39;;;;;;;0.55;0.55;;;;;;;;;;5045082;28;20029;-60
2022/07/16 05:13:06;;;;;;;0.00;0.00;;;;;;;;;;5044455;28;20394;-60
2022/07/16 05:15:31;;;;;;;0.00;0.00;;;;;;;;;;5045270;28;20017;-60
2022/07/16 05:17:57;;;;;;;0.00;0.00;;;;;;;;;;5044721;28;20478;-62
2022/07/16 05:20:22;;;;;;;3.00;0.47;;;;;;;;;;5045150;28;20024;-63
2022/07/16 05:22:47;;;;;;;0.22;0.22;;;;;;;;;;5045571;28;20777;-62
2022/07/16 05:25:14;;;;;;;0.00;0.00;;;;;;;;;;5044943;28;20021;-61
2022/07/16 05:27:39;;;;;;;0.00;0.00;;;;;;;;;;5044889;28;20100;-60
2022/07/16 05:30:05;;;;;;;1.45;0.93;;;;;;;;;;5044497;28;20036;-61
2022/07/16 05:32:30;;;;;;;0.00;0.00;;;;;;;;;;5043641;28;20848;-60
2022/07/16 05:34:55;;;;;;;0.47;0.47;;;;;;;;;;5043935;28;20025;-61
2022/07/16 05:37:21;;;;;;;0.00;0.00;;;;;;;;;;5044922;28;20609;-61
2022/07/16 05:39:46;;;;;;;0.00;0.00;;;;;;;;;;5044985;28;20032;-62
2022/07/16 05:42:11;;;;;;;0.00;0.00;;;;;;;;;;5044122;28;20107;-61
2022/07/16 05:44:36;;;;;;;0.00;0.00;;;;;;;;;;5044623;28;20066;-61
2022/07/16 05:47:02;;;;;;;0.00;0.00;;;;;;;;;;5044299;28;20033;-61
2022/07/16 05:49:27;;;;;;;0.00;0.00;;;;;;;;;;5044778;28;20116;-62
2022/07/16 05:51:52;;;;;;;0.00;0.00;;;;;;;;;;5043989;28;20020;-61
2022/07/16 05:54:17;;;;;;;0.00;0.00;;;;;;;;;;5044730;28;20055;-61
2022/07/16 05:56:43;;;;;;;0.30;0.30;;;;;;;;;;5043865;28;20338;-61
2022/07/16 05:59:08;;;;;;;0.00;0.00;;;;;;;;;;5043630;28;20060;-60
2022/07/16 06:01:33;;;;;;;0.00;0.00;;;;;;;;;;5043878;28;20877;-63
2022/07/16 06:03:58;;;;;;;0.00;0.00;;;;;;;;;;5043125;28;20282;-59
2022/07/16 06:06:24;;;;;;;0.95;0.95;;;;;;;;;;5045170;28;20033;-59
2022/07/16 06:08:49;;;;;;;0.00;0.00;;;;;;;;;;5045411;28;20485;-59
2022/07/16 06:11:14;;;;;;;2.28;0.85;;;;;;;;;;5044079;28;20048;-60
2022/07/16 06:13:39;;;;;;;0.00;0.00;;;;;;;;;;5048594;28;20454;-63
2022/07/16 06:16:07;;;;;;;0.10;0.10;;;;;;;;;;5047857;28;20354;-63
2022/07/16 06:18:32;;;;;;;0.00;0.00;;;;;;;;;;5048319;28;20263;-65
2022/07/16 06:20:57;;;;;;;0.00;0.00;;;;;;;;;;5047683;28;20551;-64
2022/07/16 06:23:22;;;;;;;0.00;0.00;;;;;;;;;;5048390;28;20028;-63
2022/07/16 06:25:48;;;;;;;0.00;0.00;;;;;;;;;;5047857;28;20078;-64
2022/07/16 06:28:13;;;;;;;0.10;0.10;;;;;;;;;;5046132;28;20298;-61
2022/07/16 06:30:38;;;;;;;0.00;0.00;;;;;;;;;;5048366;28;20644;-61
2022/07/16 06:33:03;;;;;;;0.00;0.00;;;;;;;;;;5047963;28;20269;-61
2022/07/16 06:35:28;;;;;;;0.30;0.30;;;;;;;;;;5048565;28;20013;-61
2022/07/16 06:37:54;;;;;;;0.00;0.00;;;;;;;;;;5047685;28;20275;-61
2022/07/16 06:40:19;;;;;;;0.00;0.00;;;;;;;;;;5048136;28;20036;-61
2022/07/16 06:42:44;;;;;;;0.00;0.00;;;;;;;;;;5047990;28;20049;-61
2022/07/16 06:45:10;;;;;;;0.00;0.00;;;;;;;;;;5047288;28;20028;-61
2022/07/16 06:47:35;;;;;;;0.00;0.00;;;;;;;;;;5048222;28;20266;-62
2022/07/16 06:50:00;;;;;;;0.00;0.00;;;;;;;;;;5047622;28;20517;-62
2022/07/16 06:52:25;;;;;;;0.00;0.00;;;;;;;;;;5047567;28;20458;-62
2022/07/16 06:54:51;;;;;;;0.60;0.60;;;;;;;;;;5048195;28;20021;-62
2022/07/16 06:57:16;;;;;;;0.00;0.00;;;;;;;;;;5047165;28;20263;-63
2022/07/16 06:59:41;;;;;;;0.00;0.00;;;;;;;;;;5048040;28;20748;-61
2022/07/16 07:02:06;;;;;;;0.00;0.00;;;;;;;;;;5047859;28;20033;-61
2022/07/16 07:04:32;;;;;;;0.10;0.10;;;;;;;;;;5047847;28;20045;-60
2022/07/16 07:06:57;;;;;;;0.07;0.07;;;;;;;;;;5047495;28;20268;-62
2022/07/16 07:09:22;;;;;;;0.00;0.00;;;;;;;;;;5047862;28;20645;-61
2022/07/16 07:11:47;;;;;;;0.00;0.00;;;;;;;;;;5047696;28;20274;-60
2022/07/16 07:14:12;;;;;;;3.42;0.25;;;;;;;;;;5047471;28;20374;-63
2022/07/16 07:16:38;;;;;;;0.00;0.00;;;;;;;;;;5050057;28;20025;-61
2022/07/16 07:19:03;;;;;;;0.00;0.00;;;;;;;;;;5052460;28;20259;-62
2022/07/16 07:21:28;;;;;;;0.00;0.00;;;;;;;;;;5051888;28;20260;-63
2022/07/16 07:23:53;;;;;;;0.00;0.00;;;;;;;;;;5053537;28;20071;-63
2022/07/16 07:26:19;;;;;;;0.00;0.00;;;;;;;;;;5053733;28;20031;-64
2022/07/16 07:28:44;;;;;;;0.10;0.10;;;;;;;;;;5054910;28;20512;-63
2022/07/16 07:31:09;;;;;;;0.07;0.07;;;;;;;;;;5054593;28;20369;-63
2022/07/16 07:33:36;;;;;;;0.00;0.00;;;;;;;;;;5054729;28;20799;-64
2022/07/16 07:36:01;;;;;;;0.00;0.00;;;;;;;;;;5055237;28;20350;-64
2022/07/16 07:38:26;;;;;;;0.00;0.00;;;;;;;;;;5054439;28;20107;-63
2022/07/16 07:40:51;;;;;;;0.10;0.10;;;;;;;;;;5053890;28;20081;-64
2022/07/16 07:43:16;;;;;;;0.47;0.47;;;;;;;;;;5053345;28;20821;-63
2022/07/16 07:45:42;;;;;;;0.00;0.00;;;;;;;;;;5052710;28;20286;-63
2022/07/16 07:48:07;;;;;;;0.00;0.00;;;;;;;;;;5053477;28;20268;-64
2022/07/16 07:50:32;;;;;;;0.00;0.00;;;;;;;;;;5053348;28;20060;-64
2022/07/16 07:52:57;;;;;;;0.00;0.00;;;;;;;;;;5053635;28;20335;-63
2022/07/16 07:55:23;;;;;;;0.00;0.00;;;;;;;;;;5053289;28;20047;-64
2022/07/16 07:57:48;;;;;;;0.00;0.00;;;;;;;;;;5053170;28;20013;-64
2022/07/16 08:00:15;;;;;;;0.00;0.00;;;;;;;;;;5050933;28;20021;-65
2022/07/16 08:02:44;;;;;;;0.00;0.00;;;;;;;;;;5053685;28;20023;-64
2022/07/16 08:05:09;;;;;;;;;;;;;;;;;;5053784;28;20091;-63
2022/07/16 08:07:34;;;;;;;0.00;0.00;;;;;;;;;;5054462;28;19952;-63
2022/07/16 08:10:00;;;;;;;0.00;0.00;;;;;;;;;;5054426;28;20061;-64
2022/07/16 08:12:25;;;;;;;0.10;0.10;;;;;;;;;;5054255;28;20450;-64
2022/07/16 08:14:51;;;;;;;0.00;0.00;;;;;;;;;;5054047;28;20259;-64
2022/07/16 08:17:16;;;;;;;0.00;0.00;;;;;;;;;;5053512;28;20259;-63
2022/07/16 08:19:41;;;;;;;0.00;0.00;;;;;;;;;;5053121;28;20025;-64
2022/07/16 08:22:06;;;;;;;0.00;0.00;;;;;;;;;;5052472;28;20368;-64
2022/07/16 08:27:15;;;;;;;0.00;0.00;;;;;;;;;;5049020;28;20333;-64
2022/07/16 08:29:40;;;;;;;0.00;0.00;;;;;;;;;;5050860;28;20096;-64
2022/07/16 08:32:06;;;;;;;0.00;0.00;;;;;;;;;;5050702;28;20094;-63
2022/07/16 08:34:31;;;;;;;1.23;1.23;;;;;;;;;;5033623;28;20275;-63
2022/07/16 08:36:56;;;;;;;0.00;0.00;;;;;;;;;;5050949;28;20133;-63
2022/07/16 08:39:22;;;;;;;0.30;0.30;;;;;;;;;;5052376;28;20335;-64
2022/07/16 08:41:48;;;;;;;0.00;0.00;;;;;;;;;;5050518;28;20060;-63
2022/07/16 08:44:14;;;;;;;0.68;0.60;;;;;;;;;;5050229;28;20027;-63
2022/07/16 08:46:39;;;;;;;3.42;0.28;;;;;;;;;;5050302;28;20029;-63
2022/07/16 08:49:05;;;;;;;0.17;0.17;;;;;;;;;;5051474;28;20013;-64
2022/07/16 08:51:31;;;;;;;1.17;0.52;;;;;;;;;;5051767;28;20021;-66
2022/07/16 08:54:00;;;;;;;0.00;0.00;;;;;;;;;;5050805;28;20055;-64
2022/07/16 08:56:27;;;;;;;0.15;0.15;;;;;;;;;;5049350;28;20394;-64
2022/07/16 08:58:52;;;;;;;0.82;0.47;;;;;;;;;;5051245;28;20090;-65
2022/07/16 09:01:17;;;;;;;0.00;0.00;;;;;;;;;;5048857;28;20455;-67
2022/07/16 09:03:43;;;;;;;0.00;0.00;;;;;;;;;;5051293;28;20359;-67
2022/07/16 09:06:08;;;;;;;0.55;0.55;;;;;;;;;;5049235;28;20056;-67
2022/07/16 09:08:33;;;;;;;0.17;0.17;;;;;;;;;;5049841;28;20028;-67
2022/07/16 09:11:15;;;;;;;0.00;0.00;;;;;;;;;;5049695;28;20374;-66
2022/07/16 09:13:57;;;;;;;0.40;0.40;;;;;;;;;;5048803;28;20023;-67
2022/07/16 09:16:29;;;;;;;0.38;0.38;;;;;;;;;;5048977;28;20044;-66
2022/07/16 09:19:02;;;;;;;0.00;0.00;;;;;;;;;;5049847;28;20033;-64
2022/07/16 09:21:27;;;;;;;3.47;1.40;;;;;;;;;;5048929;28;20029;-69
2022/07/16 09:23:52;;;;;;;0.00;0.00;;;;;;;;;;5050138;28;20032;-64
2022/07/16 09:26:18;;;;;;;0.20;0.20;;;;;;;;;;5047060;28;20264;-62
2022/07/16 09:28:47;;;;;;;1.05;0.22;;;;;;;;;;5049062;28;20259;-63
2022/07/16 09:31:45;;;;;;;0.00;0.00;;;;;;;;;;5051189;28;20058;-63
2022/07/16 09:34:15;;;;;;;0.00;0.00;;;;;;;;;;5024302;28;20048;-62
2022/07/16 09:36:54;;;;;;;0.00;0.00;;;;;;;;;;5050633;28;20599;-63
2022/07/16 09:39:22;;;;;;;0.43;0.17;;;;;;;;;;5049286;28;20025;-62
2022/07/16 09:41:48;;;;;;;3.77;0.93;;;;;;;;;;5051256;28;20103;-64
2022/07/16 09:44:13;;;;;;;0.00;0.00;;;;;;;;;;5051859;28;20025;-63
2022/07/16 09:46:38;;;;;;;0.70;0.30;;;;;;;;;;5052031;28;20056;-63
2022/07/16 09:49:03;;;;;;;0.47;0.47;;;;;;;;;;5052070;28;20060;-62
2022/07/16 09:51:32;;;;;;;0.10;0.10;;;;;;;;;;5048276;28;20020;-63
2022/07/16 09:53:57;;;;;;;0.15;0.15;;;;;;;;;;5049605;28;20370;-62
2022/07/16 09:56:24;;;;;;;2.25;0.70;;;;;;;;;;5052434;28;20524;-62
2022/07/16 09:58:51;;;;;;;0.20;0.08;;;;;;;;;;5051322;28;20025;-62
2022/07/16 10:01:17;;;;;;;0.08;0.08;;;;;;;;;;5051174;28;20071;-62
2022/07/16 10:03:43;;;;;;;0.20;0.20;;;;;;;;;;5051351;28;20025;-62
2022/07/16 10:06:08;;;;;;;0.00;0.00;;;;;;;;;;5051070;28;20571;-62
2022/07/16 10:08:34;;;;;;;0.00;0.00;;;;;;;;;;5051400;28;20025;-62
2022/07/16 10:10:59;;;;;;;0.00;0.00;;;;;;;;;;5051042;28;20024;-63
2022/07/16 10:13:25;;;;;;;0.00;0.00;;;;;;;;;;5050095;28;20143;-63
2022/07/16 10:15:51;;;;;;;1.27;0.82;;;;;;;;;;5049400;28;20032;-62
2022/07/16 10:18:34;;;;;;;0.08;0.08;;;;;;;;;;5048350;28;20024;-63
2022/07/16 10:21:07;;;;;;;0.38;0.38;;;;;;;;;;5047301;28;20021;-63
2022/07/16 10:23:33;;;;;;;0.10;0.10;;;;;;;;;;5052318;28;20024;-63
2022/07/16 10:25:59;;;;;;;0.00;0.00;;;;;;;;;;5052334;28;20037;-63
2022/07/16 10:28:45;;;;;;;3.30;0.47;;;;;;;;;;5049618;28;20024;-65
2022/07/16 10:31:29;;;;;;;0.28;0.03;;;;;;;;;;5038560;28;20029;-63
2022/07/16 10:34:20;;;;;;;0.00;0.00;;;;;;;;;;5050602;28;20388;-62
2022/07/16 10:36:47;;;;;;;0.15;0.15;;;;;;;;;;5024752;28;20394;-64
2022/07/16 10:39:15;;;;;;;0.50;0.50;;;;;;;;;;5048483;28;20033;-63
2022/07/16 10:41:50;;;;;;;0.73;0.73;;;;;;;;;;5047241;28;20017;-62
2022/07/16 10:44:16;;;;;;;0.00;0.00;;;;;;;;;;5051172;28;20067;-65
2022/07/16 10:46:52;;;;;;;0.00;0.00;;;;;;;;;;5044670;28;20754;-62
2022/07/16 10:49:17;;;;;;;0.00;0.00;;;;;;;;;;5047774;28;20025;-62
2022/07/16 10:51:58;;;;;;;0.00;0.00;;;;;;;;;;5052402;28;20028;-62
2022/07/16 10:54:25;;;;;;;0.93;0.93;;;;;;;;;;5051768;28;20554;-62
2022/07/16 10:56:51;;;;;;;0.63;0.63;;;;;;;;;;5052731;28;20363;-62
2022/07/16 10:59:20;;;;;;;0.00;0.00;;;;;;;;;;5052731;28;20112;-62
2022/07/16 11:01:47;;;;;;;0.00;0.00;;;;;;;;;;5051786;28;20315;-62
2022/07/16 11:04:13;;;;;;;0.00;0.00;;;;;;;;;;5051861;28;20025;-62
2022/07/16 11:06:39;;;;;;;3.92;0.75;;;;;;;;;;5051874;28;20465;-62
2022/07/16 11:09:06;;;;;;;0.00;0.00;;;;;;;;;;5051963;28;20020;-63
2022/07/16 11:11:32;;;;;;;0.52;0.43;;;;;;;;;;5052430;28;20040;-62
2022/07/16 11:13:58;;;;;;;1.38;0.60;;;;;;;;;;5051304;28;20032;-62
2022/07/16 11:16:23;;;;;;;0.30;0.00;;;;;;;;;;5050500;28;20029;-62
2022/07/16 11:18:48;;;;;;;0.05;0.05;;;;;;;;;;5052149;28;20104;-62
2022/07/16 11:21:14;;;;;;;0.03;0.03;;;;;;;;;;5051758;28;20042;-62
2022/07/16 11:23:46;;;;;;;0.00;0.00;;;;;;;;;;5049945;28;20301;-63
2022/07/16 11:26:11;;;;;;;0.00;0.00;;;;;;;;;;5049753;28;20374;-63
2022/07/16 11:28:48;;;;;;;5.65;0.40;;;;;;;;;;5051850;28;20104;-63
2022/07/16 11:31:13;;;;;;;0.10;0.10;;;;;;;;;;5050228;28;20028;-61
2022/07/16 11:33:39;;;;;;;0.00;0.00;;;;;;;;;;5051711;28;20013;-62
2022/07/16 11:36:05;;;;;;;0.00;0.00;;;;;;;;;;5051774;28;20021;-62
2022/07/16 11:38:31;;;;;;;1.23;1.10;;;;;;;;;;5052046;28;20155;-63
2022/07/16 11:40:56;;;;;;;0.13;0.08;;;;;;;;;;5045050;28;20885;-62
2022/07/16 11:43:28;;;;;;;0.08;0.08;;;;;;;;;;5047527;28;20036;-63
2022/07/16 11:45:54;;;;;;;0.30;0.30;;;;;;;;;;5050939;28;20066;-63
2022/07/16 11:48:19;;;;;;;0.28;0.28;;;;;;;;;;5051152;28;20092;-62
2022/07/16 11:50:45;;;;;;;0.35;0.35;;;;;;;;;;5051317;28;20025;-62
2022/07/16 11:53:11;;;;;;;0.00;0.00;;;;;;;;;;5050925;28;20037;-62
2022/07/16 11:55:44;;;;;;;1.20;1.05;;;;;;;;;;5030494;28;20029;-62
2022/07/16 11:58:10;;;;;;;0.00;0.00;;;;;;;;;;5049347;28;20501;-63
2022/07/16 12:00:43;;;;;;;0.20;0.20;;;;;;;;;;5047521;28;20025;-63
2022/07/16 12:03:09;;;;;;;0.00;0.00;;;;;;;;;;5051183;28;20025;-63
2022/07/16 12:05:35;;;;;;;0.00;0.00;;;;;;;;;;5051526;28;20150;-62
2022/07/16 12:08:02;;;;;;;0.10;0.10;;;;;;;;;;5049961;28;20053;-62
2022/07/16 12:10:27;;;;;;;0.00;0.00;;;;;;;;;;5051494;28;20029;-62
2022/07/16 12:13:06;;;;;;;0.40;0.40;;;;;;;;;;5051015;28;20063;-62
2022/07/16 12:15:50;;;;;;;0.20;0.20;;;;;;;;;;5050607;28;20020;-63
2022/07/16 12:18:15;;;;;;;0.00;0.00;;;;;;;;;;5049009;28;20035;-62
2022/07/16 12:20:41;;;;;;;0.17;0.17;;;;;;;;;;5050906;28;20025;-62
2022/07/16 12:23:08;;;;;;;0.00;0.00;;;;;;;;;;5050634;28;21117;-62
2022/07/16 12:25:34;;;;;;;0.30;0.30;;;;;;;;;;5034155;28;20025;-62
2022/07/16 12:28:02;;;;;;;0.00;0.00;;;;;;;;;;5051589;28;20021;-62
2022/07/16 12:30:30;;;;;;;0.30;0.23;;;;;;;;;;5050835;28;20154;-62
2022/07/16 12:32:56;;;;;;;1.98;0.43;;;;;;;;;;5051721;28;20020;-62
2022/07/16 12:35:39;;;;;;;0.00;0.00;;;;;;;;;;5050791;28;20775;-62
2022/07/16 12:38:05;;;;;;;4.20;0.88;;;;;;;;;;5049910;28;20482;-62
2022/07/16 12:40:31;;;;;;;0.00;0.00;;;;;;;;;;5050489;28;20032;-62
2022/07/16 12:42:57;;;;;;;0.00;0.00;;;;;;;;;;5049851;28;20021;-62
2022/07/16 12:45:23;;;;;;;0.00;0.00;;;;;;;;;;5049645;28;20465;-62
2022/07/16 12:47:48;;;;;;;0.28;0.28;;;;;;;;;;5049206;28;20525;-62
2022/07/16 12:50:13;;;;;;;0.80;0.65;;;;;;;;;;5049379;28;20028;-63
2022/07/16 12:52:38;;;;;;;0.08;0.08;;;;;;;;;;5050032;28;20490;-62
2022/07/16 13:00:33;;;;;;;0.63;0.63;;;;;;;;;;5049652;28;20063;-61
2022/07/16 13:02:58;;;;;;;0.00;0.00;;;;;;;;;;5050760;28;20017;-61
2022/07/16 13:05:25;;;;;;;0.32;0.32;;;;;;;;;;5032430;28;20106;-61
2022/07/16 13:07:50;;;;;;;0.00;0.00;;;;;;;;;;5050324;28;20470;-61
2022/07/16 13:10:15;;;;;;;0.30;0.30;;;;;;;;;;5029983;28;20028;-62
2022/07/16 13:12:40;;;;;;;0.00;0.00;;;;;;;;;;5045800;28;20274;-61
2022/07/16 13:15:06;;;;;;;0.15;0.15;;;;;;;;;;5043010;28;20799;-62
2022/07/16 13:17:31;;;;;;;0.47;0.47;;;;;;;;;;5047774;28;20052;-60
2022/07/16 13:19:56;;;;;;;0.57;0.57;;;;;;;;;;5048392;28;20528;-62
2022/07/16 13:22:21;;;;;;;0.05;0.05;;;;;;;;;;5048314;28;20278;-62
2022/07/16 13:24:47;;;;;;;0.13;0.13;;;;;;;;;;5048204;28;20384;-62
2022/07/16 13:27:12;;;;;;;0.22;0.22;;;;;;;;;;5044652;28;20048;-61
2022/07/16 13:29:37;;;;;;;2.13;0.45;;;;;;;;;;5047197;28;20397;-62
2022/07/16 13:32:03;;;;;;;0.10;0.10;;;;;;;;;;5047727;28;20020;-63
2022/07/16 13:34:28;;;;;;;0.00;0.00;;;;;;;;;;5048147;28;20021;-65
2022/07/16 13:36:53;;;;;;;0.10;0.10;;;;;;;;;;5031264;28;20099;-63
2022/07/16 13:39:19;;;;;;;0.00;0.00;;;;;;;;;;5031054;28;20294;-64
2022/07/16 13:41:45;;;;;;;0.10;0.10;;;;;;;;;;5047466;28;20025;-63
2022/07/16 13:44:10;;;;;;;0.00;0.00;;;;;;;;;;5046946;28;20013;-64
2022/07/16 13:46:35;;;;;;;0.00;0.00;;;;;;;;;;5047669;28;20071;-62
2022/07/16 13:49:03;;;;;;;0.35;0.30;;;;;;;;;;5047664;28;20481;-63
2022/07/16 13:51:28;;;;;;;0.35;0.35;;;;;;;;;;5048107;28;20371;-61
2022/07/16 13:53:53;;;;;;;0.10;0.10;;;;;;;;;;5046684;28;20109;-60
2022/07/16 13:56:19;;;;;;;0.63;0.50;;;;;;;;;;5047307;28;20355;-59
2022/07/16 13:58:45;;;;;;;0.30;0.30;;;;;;;;;;5047450;28;20116;-63
2022/07/16 14:01:14;;;;;;;0.10;0.10;;;;;;;;;;5047903;28;20040;-63
2022/07/16 14:03:39;;;;;;;0.10;0.10;;;;;;;;;;5046743;28;20019;-66
2022/07/16 14:06:05;;;;;;;0.00;0.00;;;;;;;;;;5048643;28;20032;-62
2022/07/16 14:08:31;;;;;;;0.40;0.40;;;;;;;;;;5048158;28;20021;-62
2022/07/16 14:10:56;;;;;;;0.00;0.00;;;;;;;;;;5047049;28;20036;-61
2022/07/16 14:13:21;;;;;;;0.65;0.65;;;;;;;;;;5045670;28;20443;-62
2022/07/16 14:15:47;;;;;;;0.00;0.00;;;;;;;;;;5047611;28;20355;-63
2022/07/16 14:18:13;;;;;;;0.08;0.08;;;;;;;;;;5046740;28;20041;-63
2022/07/16 14:20:39;;;;;;;0.00;0.00;;;;;;;;;;5047629;28;20463;-63
2022/07/16 14:23:05;;;;;;;0.88;0.88;;;;;;;;;;5047083;28;21262;-63
2022/07/16 14:25:30;;;;;;;0.10;0.10;;;;;;;;;;5046575;28;20040;-63
2022/07/16 14:27:56;;;;;;;1.05;1.05;;;;;;;;;;5047013;28;20034;-62
2022/07/16 14:30:21;;;;;;;0.20;0.20;;;;;;;;;;5047105;28;20235;-63
2022/07/16 14:32:47;;;;;;;0.13;0.13;;;;;;;;;;5045368;28;20897;-64
2022/07/16 14:35:13;;;;;;;0.00;0.00;;;;;;;;;;5046559;28;20028;-64
2022/07/16 14:37:39;;;;;;;0.45;0.45;;;;;;;;;;5030371;28;20029;-64
2022/07/16 14:40:06;;;;;;;0.00;0.00;;;;;;;;;;5047008;28;20016;-63
2022/07/16 14:42:31;;;;;;;0.47;0.47;;;;;;;;;;5045702;28;20111;-63
2022/07/16 14:44:56;;;;;;;1.25;1.25;;;;;;;;;;5046710;28;20108;-62
2022/07/16 14:47:21;;;;;;;1.67;0.65;;;;;;;;;;5047343;28;20020;-62
2022/07/16 14:49:47;;;;;;;0.30;0.30;;;;;;;;;;5047805;28;20025;-62
2022/07/16 14:52:12;;;;;;;1.52;0.45;;;;;;;;;;5045832;28;20063;-63
2022/07/16 14:54:37;;;;;;;0.15;0.15;;;;;;;;;;5047112;28;20033;-63